sensor_id;sensor_type;location;lat;lon;timestamp;pressure;altitude;pressure_sealevel;temperature;humidity
30598;BME280;17365;48.878;8.334;2023-03-13T00:01:23;99558.13;;;12.18;60.75
30598;BME280;17365;48.878;8.334;2023-03-13T00:03:49;99558.19;;;12.15;60.92
30598;BME280;17365;48.878;8.334;2023-03-13T00:06:14;99553.78;;;12.20;60.65
30598;BME280;17365;48.878;8.334;2023-03-13T00:08:39;99545.06;;;12.23;60.84
30598;BME280;17365;48.878;8.334;2023-03-13T00:11:05;99544.22;;;12.24;60.24
30598;BME280;17365;48.878;8.334;2023-03-13T00:13:31;99545.06;;;12.24;60.59
30598;BME280;17365;48.878;8.334;2023-03-13T00:15:59;99545.09;;;12.21;60.82
30598;BME280;17365;48.878;8.334;2023-03-13T00:18:25;99534.75;;;12.17;60.93
30598;BME280;17365;48.878;8.334;2023-03-13T00:20:56;99526.06;;;12.19;60.82
30598;BME280;17365;48.878;8.334;2023-03-13T00:23:21;99529.44;;;12.26;60.51
30598;BME280;17365;48.878;8.334;2023-03-13T00:25:46;99531.06;;;12.35;60.05
30598;BME280;17365;48.878;8.334;2023-03-13T00:28:12;99518.97;;;12.31;60.19
30598;BME280;17365;48.878;8.334;2023-03-13T00:30:37;99513.69;;;12.34;60.12
30598;BME280;17365;48.878;8.334;2023-03-13T00:33:02;99513.88;;;12.24;60.59
30598;BME280;17365;48.878;8.334;2023-03-13T00:35:27;99512.94;;;12.27;60.05
30598;BME280;17365;48.878;8.334;2023-03-13T00:37:52;99513.72;;;12.35;60.34
30598;BME280;17365;48.878;8.334;2023-03-13T00:40:17;99499.09;;;12.27;60.50
30598;BME280;17365;48.878;8.334;2023-03-13T00:42:44;99493.72;;;12.37;60.12
30598;BME280;17365;48.878;8.334;2023-03-13T00:45:09;99490.28;;;12.37;60.17
30598;BME280;17365;48.878;8.334;2023-03-13T00:47:34;99484.19;;;12.38;60.06
30598;BME280;17365;48.878;8.334;2023-03-13T00:49:59;99473.66;;;12.44;60.06
30598;BME280;17365;48.878;8.334;2023-03-13T00:52:24;99470.91;;;12.53;59.43
30598;BME280;17365;48.878;8.334;2023-03-13T00:54:52;99472.69;;;12.51;59.61
30598;BME280;17365;48.878;8.334;2023-03-13T00:57:17;99462.38;;;12.46;59.80
30598;BME280;17365;48.878;8.334;2023-03-13T00:59:42;99461.59;;;12.40;60.30
30598;BME280;17365;48.878;8.334;2023-03-13T01:02:07;99461.66;;;12.37;60.70
30598;BME280;17365;48.878;8.334;2023-03-13T01:04:32;99459.00;;;12.40;60.54
30598;BME280;17365;48.878;8.334;2023-03-13T01:06:57;99451.13;;;12.43;60.49
30598;BME280;17365;48.878;8.334;2023-03-13T01:09:23;99452.81;;;12.45;60.48
30598;BME280;17365;48.878;8.334;2023-03-13T01:11:48;99443.25;;;12.49;60.73
30598;BME280;17365;48.878;8.334;2023-03-13T01:14:14;99444.09;;;12.49;60.91
30598;BME280;17365;48.878;8.334;2023-03-13T01:16:40;99434.63;;;12.47;61.11
30598;BME280;17365;48.878;8.334;2023-03-13T01:19:06;99436.34;;;12.48;61.33
30598;BME280;17365;48.878;8.334;2023-03-13T01:21:31;99439.66;;;12.54;60.97
30598;BME280;17365;48.878;8.334;2023-03-13T01:23:57;99437.03;;;12.56;61.34
30598;BME280;17365;48.878;8.334;2023-03-13T01:26:22;99433.59;;;12.54;61.38
30598;BME280;17365;48.878;8.334;2023-03-13T01:28:48;99431.69;;;12.65;61.39
30598;BME280;17365;48.878;8.334;2023-03-13T01:31:18;99428.25;;;12.63;62.00
30598;BME280;17365;48.878;8.334;2023-03-13T01:33:44;99419.50;;;12.67;62.09
30598;BME280;17365;48.878;8.334;2023-03-13T01:36:09;99418.63;;;12.67;62.12
30598;BME280;17365;48.878;8.334;2023-03-13T01:38:35;99414.25;;;12.70;62.36
30598;BME280;17365;48.878;8.334;2023-03-13T01:41:00;99410.75;;;12.73;62.87
30598;BME280;17365;48.878;8.334;2023-03-13T01:43:26;99402.72;;;12.83;63.15
30598;BME280;17365;48.878;8.334;2023-03-13T01:48:21;99401.13;;;12.76;65.49
30598;BME280;17365;48.878;8.334;2023-03-13T01:50:50;99395.16;;;12.71;67.21
30598;BME280;17365;48.878;8.334;2023-03-13T01:53:15;99396.28;;;12.58;68.95
30598;BME280;17365;48.878;8.334;2023-03-13T01:55:41;99385.72;;;12.64;69.41
30598;BME280;17365;48.878;8.334;2023-03-13T01:58:06;99378.06;;;12.58;70.82
30598;BME280;17365;48.878;8.334;2023-03-13T02:00:32;99383.53;;;12.41;72.67
30598;BME280;17365;48.878;8.334;2023-03-13T02:03:00;99384.34;;;12.45;72.71
30598;BME280;17365;48.878;8.334;2023-03-13T02:05:27;99387.72;;;12.50;73.47
30598;BME280;17365;48.878;8.334;2023-03-13T02:07:59;99383.63;;;12.37;75.32
30598;BME280;17365;48.878;8.334;2023-03-13T02:10:26;99374.25;;;12.28;76.25
30598;BME280;17365;48.878;8.334;2023-03-13T02:12:53;99376.03;;;12.24;77.03
30598;BME280;17365;48.878;8.334;2023-03-13T02:15:19;99359.56;;;12.22;77.84
30598;BME280;17365;48.878;8.334;2023-03-13T02:17:46;99364.06;;;12.14;79.17
30598;BME280;17365;48.878;8.334;2023-03-13T02:20:13;99361.50;;;12.13;79.42
30598;BME280;17365;48.878;8.334;2023-03-13T02:22:47;99361.47;;;12.14;79.69
30598;BME280;17365;48.878;8.334;2023-03-13T02:27:59;99345.97;;;12.08;79.93
30598;BME280;17365;48.878;8.334;2023-03-13T02:30:25;99349.44;;;12.07;80.52
30598;BME280;17365;48.878;8.334;2023-03-13T02:32:51;99338.91;;;12.16;80.25
30598;BME280;17365;48.878;8.334;2023-03-13T02:35:17;99332.81;;;12.17;80.11
30598;BME280;17365;48.878;8.334;2023-03-13T02:37:43;99326.06;;;12.07;81.33
30598;BME280;17365;48.878;8.334;2023-03-13T02:40:10;99326.84;;;12.12;81.15
30598;BME280;17365;48.878;8.334;2023-03-13T02:42:38;99310.56;;;12.00;82.10
30598;BME280;17365;48.878;8.334;2023-03-13T02:45:04;99291.34;;;12.10;81.40
30598;BME280;17365;48.878;8.334;2023-03-13T02:47:30;99301.13;;;11.95;82.40
30598;BME280;17365;48.878;8.334;2023-03-13T02:49:55;99292.41;;;11.98;82.31
30598;BME280;17365;48.878;8.334;2023-03-13T02:52:22;99293.34;;;11.94;82.67
30598;BME280;17365;48.878;8.334;2023-03-13T02:54:49;99296.56;;;12.08;81.22
30598;BME280;17365;48.878;8.334;2023-03-13T02:57:15;99290.69;;;11.97;82.27
30598;BME280;17365;48.878;8.334;2023-03-13T02:59:40;99289.69;;;12.06;81.57
30598;BME280;17365;48.878;8.334;2023-03-13T03:02:06;99285.28;;;12.09;81.13
30598;BME280;17365;48.878;8.334;2023-03-13T03:04:31;99274.88;;;12.09;81.17
30598;BME280;17365;48.878;8.334;2023-03-13T03:06:56;99274.13;;;12.04;81.71
30598;BME280;17365;48.878;8.334;2023-03-13T03:09:22;99276.66;;;12.07;81.83
30598;BME280;17365;48.878;8.334;2023-03-13T03:11:47;99269.66;;;12.12;81.07
30598;BME280;17365;48.878;8.334;2023-03-13T03:14:13;99268.97;;;12.01;82.01
30598;BME280;17365;48.878;8.334;2023-03-13T03:16:38;99273.09;;;12.13;81.47
30598;BME280;17365;48.878;8.334;2023-03-13T03:19:03;99268.59;;;12.21;81.01
30598;BME280;17365;48.878;8.334;2023-03-13T03:21:30;99267.81;;;12.17;81.45
30598;BME280;17365;48.878;8.334;2023-03-13T03:23:55;99274.03;;;12.09;82.01
30598;BME280;17365;48.878;8.334;2023-03-13T03:26:20;99265.13;;;12.22;81.20
30598;BME280;17365;48.878;8.334;2023-03-13T03:28:46;99276.16;;;12.35;80.72
30598;BME280;17365;48.878;8.334;2023-03-13T03:31:12;99267.66;;;12.27;82.04
30598;BME280;17365;48.878;8.334;2023-03-13T03:33:38;99267.66;;;12.27;82.45
30598;BME280;17365;48.878;8.334;2023-03-13T03:36:07;99260.59;;;12.32;82.55
30598;BME280;17365;48.878;8.334;2023-03-13T03:38:33;99254.63;;;12.28;82.73
30598;BME280;17365;48.878;8.334;2023-03-13T03:40:58;99255.41;;;12.32;82.48
30598;BME280;17365;48.878;8.334;2023-03-13T03:43:24;99245.72;;;12.40;81.60
30598;BME280;17365;48.878;8.334;2023-03-13T03:45:49;99267.28;;;12.46;81.03
30598;BME280;17365;48.878;8.334;2023-03-13T03:48:14;99241.22;;;12.48;80.48
30598;BME280;17365;48.878;8.334;2023-03-13T03:50:39;99241.25;;;12.45;80.69
30598;BME280;17365;48.878;8.334;2023-03-13T03:53:04;99241.13;;;12.52;79.62
30598;BME280;17365;48.878;8.334;2023-03-13T03:55:30;99243.84;;;12.48;80.04
30598;BME280;17365;48.878;8.334;2023-03-13T03:57:55;99239.41;;;12.51;79.36
30598;BME280;17365;48.878;8.334;2023-03-13T04:00:20;99233.47;;;12.46;79.55
30598;BME280;17365;48.878;8.334;2023-03-13T04:02:46;99246.19;;;12.60;78.49
30598;BME280;17365;48.878;8.334;2023-03-13T04:05:11;99234.06;;;12.59;78.84
30598;BME280;17365;48.878;8.334;2023-03-13T04:07:36;99218.47;;;12.59;78.83
30598;BME280;17365;48.878;8.334;2023-03-13T04:10:02;99215.88;;;12.56;79.18
30598;BME280;17365;48.878;8.334;2023-03-13T04:12:27;99232.34;;;12.58;78.84
30598;BME280;17365;48.878;8.334;2023-03-13T04:14:53;99211.31;;;12.67;78.79
30598;BME280;17365;48.878;8.334;2023-03-13T04:17:18;99220.25;;;12.57;79.68
30598;BME280;17365;48.878;8.334;2023-03-13T04:19:43;99208.94;;;12.57;79.61
30598;BME280;17365;48.878;8.334;2023-03-13T04:22:08;99203.69;;;12.60;79.49
30598;BME280;17365;48.878;8.334;2023-03-13T04:24:33;99195.97;;;12.55;80.34
30598;BME280;17365;48.878;8.334;2023-03-13T04:26:59;99209.00;;;12.53;80.23
30598;BME280;17365;48.878;8.334;2023-03-13T04:29:25;99217.47;;;12.65;79.79
30598;BME280;17365;48.878;8.334;2023-03-13T04:31:50;99190.63;;;12.63;79.83
30598;BME280;17365;48.878;8.334;2023-03-13T04:34:16;99199.25;;;12.65;79.82
30598;BME280;17365;48.878;8.334;2023-03-13T04:36:41;99200.78;;;12.73;79.40
30598;BME280;17365;48.878;8.334;2023-03-13T04:39:06;99183.56;;;12.69;79.53
30598;BME280;17365;48.878;8.334;2023-03-13T04:41:31;99187.72;;;12.76;79.46
30598;BME280;17365;48.878;8.334;2023-03-13T04:43:56;99185.25;;;12.70;80.22
30598;BME280;17365;48.878;8.334;2023-03-13T04:46:22;99191.16;;;12.77;79.44
30598;BME280;17365;48.878;8.334;2023-03-13T04:48:47;99189.41;;;12.77;79.75
30598;BME280;17365;48.878;8.334;2023-03-13T04:51:12;99191.25;;;12.74;80.12
30598;BME280;17365;48.878;8.334;2023-03-13T04:53:37;99182.63;;;12.72;80.28
30598;BME280;17365;48.878;8.334;2023-03-13T04:56:03;99187.84;;;12.70;80.65
30598;BME280;17365;48.878;8.334;2023-03-13T04:58:28;99199.00;;;12.75;80.66
30598;BME280;17365;48.878;8.334;2023-03-13T05:00:53;99197.22;;;12.77;80.80
30598;BME280;17365;48.878;8.334;2023-03-13T05:03:19;99215.41;;;12.80;80.96
30598;BME280;17365;48.878;8.334;2023-03-13T05:05:44;99210.25;;;12.77;82.54
30598;BME280;17365;48.878;8.334;2023-03-13T05:08:09;99213.69;;;12.78;83.00
30598;BME280;17365;48.878;8.334;2023-03-13T05:10:35;99206.75;;;12.80;83.56
30598;BME280;17365;48.878;8.334;2023-03-13T05:13:00;99211.06;;;12.79;83.64
30598;BME280;17365;48.878;8.334;2023-03-13T05:15:25;99212.91;;;12.74;84.14
30598;BME280;17365;48.878;8.334;2023-03-13T05:17:50;99211.13;;;12.76;84.04
30598;BME280;17365;48.878;8.334;2023-03-13T05:20:15;99212.91;;;12.74;84.27
30598;BME280;17365;48.878;8.334;2023-03-13T05:22:41;99206.00;;;12.73;84.24
30598;BME280;17365;48.878;8.334;2023-03-13T05:25:06;99214.59;;;12.77;84.42
30598;BME280;17365;48.878;8.334;2023-03-13T05:27:31;99211.22;;;12.73;84.57
30598;BME280;17365;48.878;8.334;2023-03-13T05:29:56;99207.63;;;12.77;84.63
30598;BME280;17365;48.878;8.334;2023-03-13T05:32:21;99198.03;;;12.81;84.40
30598;BME280;17365;48.878;8.334;2023-03-13T05:34:47;99206.00;;;12.73;85.21
30598;BME280;17365;48.878;8.334;2023-03-13T05:37:12;99201.56;;;12.77;85.41
30598;BME280;17365;48.878;8.334;2023-03-13T05:39:37;99210.31;;;12.74;85.62
30598;BME280;17365;48.878;8.334;2023-03-13T05:42:02;99210.25;;;12.77;85.21
30598;BME280;17365;48.878;8.334;2023-03-13T05:44:28;99228.41;;;12.80;85.04
30598;BME280;17365;48.878;8.334;2023-03-13T05:46:53;99225.75;;;12.83;84.99
30598;BME280;17365;48.878;8.334;2023-03-13T05:49:18;99217.03;;;12.85;84.79
30598;BME280;17365;48.878;8.334;2023-03-13T05:51:43;99218.72;;;12.87;84.83
30598;BME280;17365;48.878;8.334;2023-03-13T05:54:08;99222.13;;;12.89;84.58
30598;BME280;17365;48.878;8.334;2023-03-13T05:56:34;99222.09;;;12.91;84.46
30598;BME280;17365;48.878;8.334;2023-03-13T05:58:59;99228.22;;;12.88;84.78
30598;BME280;17365;48.878;8.334;2023-03-13T06:01:24;99226.44;;;12.92;84.93
30598;BME280;17365;48.878;8.334;2023-03-13T06:03:49;99223.97;;;12.86;84.97
30598;BME280;17365;48.878;8.334;2023-03-13T06:06:14;99226.47;;;12.89;84.91
30598;BME280;17365;48.878;8.334;2023-03-13T06:08:40;99215.00;;;12.97;84.41
30598;BME280;17365;48.878;8.334;2023-03-13T06:11:05;99212.53;;;12.93;84.92
30598;BME280;17365;48.878;8.334;2023-03-13T06:13:30;99218.63;;;12.92;84.71
30598;BME280;17365;48.878;8.334;2023-03-13T06:15:55;99208.47;;;13.18;83.04
30598;BME280;17365;48.878;8.334;2023-03-13T06:18:21;99212.69;;;13.24;82.32
30598;BME280;17365;48.878;8.334;2023-03-13T06:20:47;99209.16;;;13.28;81.87
30598;BME280;17365;48.878;8.334;2023-03-13T06:23:13;99217.69;;;13.33;82.60
30598;BME280;17365;48.878;8.334;2023-03-13T06:25:38;99218.88;;;13.20;84.55
30598;BME280;17365;48.878;8.334;2023-03-13T06:28:03;99208.34;;;13.24;82.96
30598;BME280;17365;48.878;8.334;2023-03-13T06:30:29;99217.97;;;13.21;83.36
30598;BME280;17365;48.878;8.334;2023-03-13T06:32:54;99223.97;;;13.24;83.64
30598;BME280;17365;48.878;8.334;2023-03-13T06:35:19;99221.81;;;13.04;85.79
30598;BME280;17365;48.878;8.334;2023-03-13T06:37:44;99224.19;;;13.15;84.82
30598;BME280;17365;48.878;8.334;2023-03-13T06:40:10;99232.69;;;13.23;84.31
30598;BME280;17365;48.878;8.334;2023-03-13T06:42:35;99229.75;;;13.38;82.89
30598;BME280;17365;48.878;8.334;2023-03-13T06:45:00;99232.78;;;13.19;84.62
30598;BME280;17365;48.878;8.334;2023-03-13T06:47:29;99234.47;;;13.21;84.94
30598;BME280;17365;48.878;8.334;2023-03-13T06:49:54;99228.38;;;13.22;84.97
30598;BME280;17365;48.878;8.334;2023-03-13T06:52:19;99237.69;;;13.32;83.79
30598;BME280;17365;48.878;8.334;2023-03-13T06:54:44;99229.06;;;13.30;84.67
30598;BME280;17365;48.878;8.334;2023-03-13T06:57:09;99225.59;;;13.30;84.02
30598;BME280;17365;48.878;8.334;2023-03-13T06:59:35;99217.94;;;13.22;85.19
30598;BME280;17365;48.878;8.334;2023-03-13T07:02:00;99227.47;;;13.23;84.98
30598;BME280;17365;48.878;8.334;2023-03-13T07:04:25;99214.88;;;13.42;82.97
30598;BME280;17365;48.878;8.334;2023-03-13T07:06:50;99216.72;;;13.38;83.76
30598;BME280;17365;48.878;8.334;2023-03-13T07:09:16;99207.16;;;13.39;83.91
30598;BME280;17365;48.878;8.334;2023-03-13T07:11:43;99214.75;;;13.47;82.97
30598;BME280;17365;48.878;8.334;2023-03-13T07:14:09;99214.69;;;13.50;83.01
30598;BME280;17365;48.878;8.334;2023-03-13T07:16:34;99201.72;;;13.48;83.49
30598;BME280;17365;48.878;8.334;2023-03-13T07:18:59;99198.84;;;13.57;83.04
30598;BME280;17365;48.878;8.334;2023-03-13T07:21:24;99179.03;;;13.52;83.43
30598;BME280;17365;48.878;8.334;2023-03-13T07:23:49;99190.97;;;13.60;83.06
30598;BME280;17365;48.878;8.334;2023-03-13T07:26:15;99182.38;;;13.57;83.38
30598;BME280;17365;48.878;8.334;2023-03-13T07:28:40;99192.78;;;13.57;83.50
30598;BME280;17365;48.878;8.334;2023-03-13T07:31:10;99157.91;;;13.62;83.07
30598;BME280;17365;48.878;8.334;2023-03-13T07:33:36;99163.34;;;13.53;83.71
30598;BME280;17365;48.878;8.334;2023-03-13T07:36:01;99166.53;;;13.64;82.92
30598;BME280;17365;48.878;8.334;2023-03-13T07:38:26;99163.19;;;13.61;83.17
30598;BME280;17365;48.878;8.334;2023-03-13T07:40:53;99165.78;;;13.61;83.37
30598;BME280;17365;48.878;8.334;2023-03-13T07:43:18;99163.66;;;13.75;83.01
30598;BME280;17365;48.878;8.334;2023-03-13T07:45:54;99165.28;;;13.79;82.70
30598;BME280;17365;48.878;8.334;2023-03-13T07:48:19;99162.09;;;14.01;81.55
30598;BME280;17365;48.878;8.334;2023-03-13T07:50:45;99166.56;;;13.97;81.71
30598;BME280;17365;48.878;8.334;2023-03-13T07:53:11;99155.78;;;14.09;81.61
30598;BME280;17365;48.878;8.334;2023-03-13T07:55:36;99159.28;;;14.08;81.08
30598;BME280;17365;48.878;8.334;2023-03-13T07:58:01;99162.56;;;14.15;80.84
30598;BME280;17365;48.878;8.334;2023-03-13T08:00:26;99157.03;;;14.27;80.14
30598;BME280;17365;48.878;8.334;2023-03-13T08:02:51;99163.72;;;14.36;79.24
30598;BME280;17365;48.878;8.334;2023-03-13T08:05:16;99167.97;;;14.38;79.26
30598;BME280;17365;48.878;8.334;2023-03-13T08:07:45;99168.19;;;14.32;79.55
30598;BME280;17365;48.878;8.334;2023-03-13T08:10:10;99166.31;;;14.36;79.05
30598;BME280;17365;48.878;8.334;2023-03-13T08:12:35;99167.97;;;14.38;78.88
30598;BME280;17365;48.878;8.334;2023-03-13T08:15:00;99173.19;;;14.40;78.66
30598;BME280;17365;48.878;8.334;2023-03-13T08:17:28;99171.59;;;14.34;78.78
30598;BME280;17365;48.878;8.334;2023-03-13T08:19:53;99174.94;;;14.39;78.03
30598;BME280;17365;48.878;8.334;2023-03-13T08:22:18;99159.94;;;14.47;77.90
30598;BME280;17365;48.878;8.334;2023-03-13T08:24:43;99166.25;;;14.39;78.19
30598;BME280;17365;48.878;8.334;2023-03-13T08:27:08;99165.78;;;14.24;78.45
30598;BME280;17365;48.878;8.334;2023-03-13T08:29:33;99165.34;;;14.40;78.42
30598;BME280;17365;48.878;8.334;2023-03-13T08:31:58;99176.16;;;14.27;78.52
30598;BME280;17365;48.878;8.334;2023-03-13T08:34:24;99163.13;;;14.26;78.35
30598;BME280;17365;48.878;8.334;2023-03-13T08:36:49;99164.97;;;14.22;78.59
30598;BME280;17365;48.878;8.334;2023-03-13T08:39:15;99168.28;;;14.29;78.63
30598;BME280;17365;48.878;8.334;2023-03-13T08:41:40;99150.78;;;14.33;78.43
30598;BME280;17365;48.878;8.334;2023-03-13T08:44:06;99160.25;;;14.35;78.03
30598;BME280;17365;48.878;8.334;2023-03-13T08:46:33;99146.41;;;14.33;77.91
30598;BME280;17365;48.878;8.334;2023-03-13T08:48:58;99143.47;;;14.45;77.76
30598;BME280;17365;48.878;8.334;2023-03-13T08:51:24;99145.25;;;14.43;77.09
30598;BME280;17365;48.878;8.334;2023-03-13T08:53:50;99137.06;;;14.55;76.68
30598;BME280;17365;48.878;8.334;2023-03-13T08:56:17;99137.97;;;14.54;76.82
30598;BME280;17365;48.878;8.334;2023-03-13T08:58:42;99108.16;;;14.63;75.99
30598;BME280;17365;48.878;8.334;2023-03-13T09:01:12;99130.47;;;14.73;75.57
30598;BME280;17365;48.878;8.334;2023-03-13T09:03:37;99124.84;;;14.57;76.01
30598;BME280;17365;48.878;8.334;2023-03-13T09:06:02;99125.63;;;14.60;75.78
30598;BME280;17365;48.878;8.334;2023-03-13T09:08:28;99127.06;;;14.70;75.67
30598;BME280;17365;48.878;8.334;2023-03-13T09:10:58;99128.44;;;14.81;74.69
30598;BME280;17365;48.878;8.334;2023-03-13T09:13:24;99118.19;;;15.03;73.78
30598;BME280;17365;48.878;8.334;2023-03-13T09:15:56;99117.22;;;15.06;73.34
30598;BME280;17365;48.878;8.334;2023-03-13T09:18:21;99101.06;;;15.21;71.95
30598;BME280;17365;48.878;8.334;2023-03-13T09:20:47;99101.56;;;15.32;71.49
30598;BME280;17365;48.878;8.334;2023-03-13T09:23:12;99102.41;;;15.33;71.08
30598;BME280;17365;48.878;8.334;2023-03-13T09:25:37;99095.75;;;15.49;70.49
30598;BME280;17365;48.878;8.334;2023-03-13T09:28:03;99108.25;;;15.41;70.40
30598;BME280;17365;48.878;8.334;2023-03-13T09:30:28;99094.81;;;15.52;70.36
30598;BME280;17365;48.878;8.334;2023-03-13T09:32:53;99087.63;;;15.57;68.66
30598;BME280;17365;48.878;8.334;2023-03-13T09:35:18;99089.63;;;16.00;68.20
30598;BME280;17365;48.878;8.334;2023-03-13T09:37:43;99085.09;;;16.27;66.62
30598;BME280;17365;48.878;8.334;2023-03-13T09:40:12;99085.00;;;16.52;65.30
30598;BME280;17365;48.878;8.334;2023-03-13T09:42:48;99083.06;;;16.80;64.36
30598;BME280;17365;48.878;8.334;2023-03-13T09:45:27;99067.47;;;16.99;62.84
30598;BME280;17365;48.878;8.334;2023-03-13T09:47:57;99071.66;;;17.03;62.32
30598;BME280;17365;48.878;8.334;2023-03-13T09:50:29;99070.38;;;16.92;63.12
30598;BME280;17365;48.878;8.334;2023-03-13T09:52:56;99071.16;;;16.94;63.01
30598;BME280;17365;48.878;8.334;2023-03-13T09:55:27;99067.94;;;16.87;63.24
30598;BME280;17365;48.878;8.334;2023-03-13T09:57:58;99059.34;;;16.83;63.38
30598;BME280;17365;48.878;8.334;2023-03-13T10:00:30;99065.50;;;16.82;62.59
30598;BME280;17365;48.878;8.334;2023-03-13T10:05:24;99055.19;;;16.56;64.37
30598;BME280;17365;48.878;8.334;2023-03-13T10:07:50;99059.84;;;16.71;63.63
30598;BME280;17365;48.878;8.334;2023-03-13T10:10:33;99042.09;;;16.56;64.06
30598;BME280;17365;48.878;8.334;2023-03-13T10:13:07;99040.09;;;16.84;62.44
30598;BME280;17365;48.878;8.334;2023-03-13T10:15:37;99036.00;;;17.20;62.30
30598;BME280;17365;48.878;8.334;2023-03-13T10:18:19;99045.19;;;17.09;62.22
30598;BME280;17365;48.878;8.334;2023-03-13T10:20:49;99043.94;;;17.18;62.27
30598;BME280;17365;48.878;8.334;2023-03-13T10:23:19;99030.38;;;17.29;61.45
30598;BME280;17365;48.878;8.334;2023-03-13T10:25:45;99037.66;;;17.42;60.57
30598;BME280;17365;48.878;8.334;2023-03-13T10:28:11;99041.84;;;17.67;60.54
30598;BME280;17365;48.878;8.334;2023-03-13T10:30:37;99031.00;;;17.54;59.88
30598;BME280;17365;48.878;8.334;2023-03-13T10:35:36;99031.09;;;17.32;60.94
30598;BME280;17365;48.878;8.334;2023-03-13T10:38:03;99023.28;;;16.90;61.99
30598;BME280;17365;48.878;8.334;2023-03-13T10:40:29;99018.91;;;16.91;62.50
30598;BME280;17365;48.878;8.334;2023-03-13T10:43:04;99013.53;;;16.94;62.49
30598;BME280;17365;48.878;8.334;2023-03-13T10:45:31;99006.94;;;17.46;61.33
30598;BME280;17365;48.878;8.334;2023-03-13T10:48:00;99002.00;;;17.38;61.88
30598;BME280;17365;48.878;8.334;2023-03-13T10:50:30;98988.66;;;17.44;61.12
30598;BME280;17365;48.878;8.334;2023-03-13T10:52:56;98986.69;;;17.09;61.76
30598;BME280;17365;48.878;8.334;2023-03-13T10:55:22;98978.03;;;17.07;62.56
30598;BME280;17365;48.878;8.334;2023-03-13T10:57:57;98987.13;;;17.39;61.87
30598;BME280;17365;48.878;8.334;2023-03-13T11:00:28;98968.06;;;17.35;61.53
30598;BME280;17365;48.878;8.334;2023-03-13T11:02:53;98951.41;;;17.36;62.00
30598;BME280;17365;48.878;8.334;2023-03-13T11:07:47;98947.09;;;17.35;61.66
30598;BME280;17365;48.878;8.334;2023-03-13T11:12:38;98928.47;;;17.41;62.30
30598;BME280;17365;48.878;8.334;2023-03-13T11:15:10;98937.34;;;17.58;61.22
30598;BME280;17365;48.878;8.334;2023-03-13T11:17:37;98932.28;;;17.73;61.08
30598;BME280;17365;48.878;8.334;2023-03-13T11:27:50;98914.19;;;17.86;60.40
30598;BME280;17365;48.878;8.334;2023-03-13T11:30:27;98902.06;;;18.20;59.66
30598;BME280;17365;48.878;8.334;2023-03-13T11:33:03;98898.84;;;18.15;58.28
30598;BME280;17365;48.878;8.334;2023-03-13T11:35:39;98885.91;;;18.46;58.19
30598;BME280;17365;48.878;8.334;2023-03-13T11:38:12;98881.00;;;18.56;56.87
30598;BME280;17365;48.878;8.334;2023-03-13T11:48:41;98864.13;;;19.12;56.35
30598;BME280;17365;48.878;8.334;2023-03-13T11:58:54;98834.44;;;18.94;55.51
30598;BME280;17365;48.878;8.334;2023-03-13T12:01:25;98833.13;;;19.18;55.02
30598;BME280;17365;48.878;8.334;2023-03-13T12:11:54;98800.09;;;19.62;53.71
30598;BME280;17365;48.878;8.334;2023-03-13T12:16:50;98799.72;;;19.52;53.78
30598;BME280;17365;48.878;8.334;2023-03-13T12:19:19;98771.13;;;19.46;53.58
30598;BME280;17365;48.878;8.334;2023-03-13T12:21:49;98771.06;;;19.63;53.92
30598;BME280;17365;48.878;8.334;2023-03-13T12:34:49;98746.34;;;19.34;53.00
30598;BME280;17365;48.878;8.334;2023-03-13T12:37:22;98741.50;;;19.58;53.26
30598;BME280;17365;48.878;8.334;2023-03-13T12:39:59;98739.81;;;19.57;53.81
30598;BME280;17365;48.878;8.334;2023-03-13T12:45:04;98730.91;;;19.44;53.80
30598;BME280;17365;48.878;8.334;2023-03-13T12:52:39;98699.66;;;19.69;52.74
30598;BME280;17365;48.878;8.334;2023-03-13T12:57:52;98678.78;;;19.96;51.94
30598;BME280;17365;48.878;8.334;2023-03-13T13:00:26;98676.41;;;19.92;52.30
30598;BME280;17365;48.878;8.334;2023-03-13T13:03:05;98676.06;;;19.98;52.15
30598;BME280;17365;48.878;8.334;2023-03-13T13:05:33;98665.44;;;20.14;51.15
30598;BME280;17365;48.878;8.334;2023-03-13T13:07:58;98655.50;;;20.19;51.61
30598;BME280;17365;48.878;8.334;2023-03-13T13:10:24;98649.59;;;20.44;51.06
30598;BME280;17365;48.878;8.334;2023-03-13T13:13:25;98650.09;;;20.50;50.88
30598;BME280;17365;48.878;8.334;2023-03-13T13:15:45;98640.16;;;20.25;50.58
30598;BME280;17365;48.878;8.334;2023-03-13T13:18:24;98638.66;;;20.21;50.24
30598;BME280;17365;48.878;8.334;2023-03-13T13:28:42;98612.22;;;20.37;49.36
30598;BME280;17365;48.878;8.334;2023-03-13T13:31:43;98619.38;;;20.35;49.48
30598;BME280;17365;48.878;8.334;2023-03-13T13:33:52;98602.16;;;20.01;49.33
30598;BME280;17365;48.878;8.334;2023-03-13T13:38:45;98600.00;;;20.22;48.93
30598;BME280;17365;48.878;8.334;2023-03-13T13:43:42;98573.66;;;20.36;49.25
30598;BME280;17365;48.878;8.334;2023-03-13T13:46:29;98561.16;;;20.40;48.60
30598;BME280;17365;48.878;8.334;2023-03-13T13:49:35;98558.91;;;20.19;48.74
30598;BME280;17365;48.878;8.334;2023-03-13T13:52:16;98551.19;;;20.30;49.29
30598;BME280;17365;48.878;8.334;2023-03-13T13:54:31;98551.19;;;20.30;48.90
30598;BME280;17365;48.878;8.334;2023-03-13T13:56:58;98529.81;;;20.35;48.70
30598;BME280;17365;48.878;8.334;2023-03-13T13:59:26;98542.72;;;20.25;49.29
30598;BME280;17365;48.878;8.334;2023-03-13T14:04:37;98532.34;;;20.36;48.41
30598;BME280;17365;48.878;8.334;2023-03-13T14:07:05;98526.34;;;20.34;48.61
30598;BME280;17365;48.878;8.334;2023-03-13T14:09:35;98522.06;;;20.19;48.58
30598;BME280;17365;48.878;8.334;2023-03-13T14:14:48;98499.63;;;20.41;48.87
30598;BME280;17365;48.878;8.334;2023-03-13T14:17:13;98501.66;;;20.64;48.35
30598;BME280;17365;48.878;8.334;2023-03-13T14:19:39;98489.72;;;20.58;48.42
30598;BME280;17365;48.878;8.334;2023-03-13T14:22:09;98478.19;;;20.74;48.18
30598;BME280;17365;48.878;8.334;2023-03-13T14:24:35;98469.72;;;20.69;47.98
30598;BME280;17365;48.878;8.334;2023-03-13T14:27:00;98472.69;;;20.77;48.41